Monday, October 16, 2017, 6:05 PM EDT
Back to Local

KOXC, Oxford, Waterbury-oxford Airport

Location: Oxford, CT, United States Lat: 41.483
Local Time: 6:05 PM EDT (22:05 GMT) Lon: -73.133
Time Zone: US/Eastern Elev: 725 ft

Show me the last for .
Show Decoded

2017-10-16 17:51 METAR KOXC 162151Z 34010KT 10SM SCT035 09/03 A3008 RMK AO2 SLP198 T00890028 =
2017-10-16 16:51 METAR KOXC 162051Z 34014G19KT 10SM FEW025 09/03 A3004 RMK AO2 SLP187 T00940028
                 51016 =
2017-10-16 15:51 METAR KOXC 161951Z 33009KT 10SM SCT030 10/03 A3004 RMK AO2 SLP183 T01000033 =
2017-10-16 14:51 METAR KOXC 161851Z 32012G17KT 10SM FEW028 10/04 A3001 RMK AO2 SLP174 T01000039 =
2017-10-16 13:51 METAR KOXC 161751Z 34009G17KT 10SM FEW027 10/04 A2999 RMK AO2 SLP167 T01000039
                 10122 20094 50001 =
2017-10-16 12:51 METAR KOXC 161651Z 34012KT 10SM SCT025 10/04 A3000 RMK AO2 PRESFR SLP168
                 T01000039 =
2017-10-16 11:51 METAR KOXC 161551Z 35016KT 10SM FEW026 10/04 A3001 RMK AO2 SLP172 T01000039 =
2017-10-16 10:51 METAR KOXC 161451Z 33009G18KT 10SM SCT026 11/06 A2999 RMK AO2 SLP165 T01110056
                 51020 =
2017-10-16 09:51 METAR KOXC 161351Z 34012KT 10SM FEW030 SCT110 11/06 A2998 RMK AO2 SLP161
                 T01110061 =
2017-10-16 08:51 METAR KOXC 161251Z 35008KT 10SM FEW030 SCT120 11/06 A2995 RMK AO2 SLP151
                 T01110061 =
2017-10-16 07:51 METAR KOXC 161151Z 34008G16KT 10SM SCT032 12/07 A2993 RMK AO2 SLP145 60001 70004
                 T01220067 10183 20122 53029 =
2017-10-16 06:51 METAR KOXC 161051Z 33012G15KT 10SM SCT031 OVC120 13/09 A2990 RMK AO2 SLP134
                 T01280089 =
2017-10-16 05:51 METAR KOXC 160951Z AUTO 34009KT 10SM FEW023 SCT033 OVC110 14/12 A2986 RMK AO2
                 RAE0857 SLP121 P0000 T01390117 =
2017-10-16 04:51 METAR KOXC 160851Z AUTO 31007KT 10SM -RA SCT070 BKN085 OVC100 15/13 A2984 RMK
                 AO2 RAB0754E08B37 SLP114 P0000 60001 T01500133 53010 =
2017-10-16 03:51 METAR KOXC 160751Z AUTO VRB06KT 10SM OVC075 16/14 A2983 RMK AO2 RAE51 SLP107
                 P0001 T01610144 =
2017-10-16 02:51 METAR KOXC 160651Z AUTO 29005KT 10SM -RA SCT046 BKN065 OVC080 17/16 A2982 RMK
                 AO2 RAE00B22 SLP103 P0000 T01720161 =
2017-10-16 02:26 METAR KOXC 160626Z AUTO VRB05KT 10SM -RA SCT011 BKN075 OVC085 18/17 A2982 RMK
                 AO2 RAE00B22 P0000 =
2017-10-16 02:14 METAR KOXC 160614Z AUTO 28006G18KT 10SM SCT005 BKN011 OVC023 18/17 A2982 RMK AO2
                 RAE00 P0000 =
2017-10-16 01:51 METAR KOXC 160551Z AUTO 26008KT 220V290 6SM -RA BR OVC005 18/18 A2981 RMK AO2
                 CIG 003V008 SLP101 P0003 60003 T01830178 10194 20183 53003 =
2017-10-16 01:28 METAR KOXC 160528Z AUTO VRB06KT 4SM -RA BR BKN005 OVC009 18/18 A2981 RMK AO2 CIG
                 004V008 P0002 TSNO =
2017-10-16 01:17 METAR KOXC 160517Z AUTO VRB04KT 4SM -RA BR OVC009 18/18 A2981 RMK AO2 CIG
                 004V012 P0002 =
2017-10-16 00:51 METAR KOXC 160451Z AUTO 23006KT 5SM -RA BR OVC013 19/17 A2981 RMK AO2 RAB24
                 SLP100 P0000 T01890172 402220144 =
2017-10-15 23:51 METAR KOXC 160351Z AUTO VRB05KT 10SM OVC013 19/17 A2980 RMK AO2 SLP099 T01890167
                 =
2017-10-15 22:51 METAR KOXC 160251Z AUTO 23008G15KT 180V260 10SM OVC015 19/16 A2981 RMK AO2
                 SLP103 T01890161 58001 =
2017-10-15 21:51 METAR KOXC 160151Z AUTO VRB06KT 10SM OVC015 19/16 A2983 RMK AO2 SLP108 T01890161
                 =
2017-10-15 20:51 METAR KOXC 160051Z 22007KT 10SM OVC015 19/16 A2983 RMK AO2 SLP108 T01890161 =
2017-10-15 19:51 METAR KOXC 152351Z 20007KT 170V240 10SM OVC015 19/17 A2982 RMK AO2 SLP105
                 T01940167 10222 20194 58015 =
2017-10-15 18:51 METAR KOXC 152251Z 19009G14KT 10SM OVC019 20/17 A2984 RMK AO2 SLP112 T02000167 =

Support USWX by starting your Amazon purchase here.